sensor_id;sensor_type;location;lat;lon;timestamp;P1;durP1;ratioP1;P2;durP2;ratioP2
25467;SDS011;13384;24.794;110.498;2022-12-29T00:00:28;13.05;;;9.25;;
25467;SDS011;13384;24.794;110.498;2022-12-29T00:03:11;13.88;;;9.65;;
25467;SDS011;13384;24.794;110.498;2022-12-29T00:05:55;14.60;;;9.98;;
25467;SDS011;13384;24.794;110.498;2022-12-29T00:08:46;13.63;;;9.35;;
25467;SDS011;13384;24.794;110.498;2022-12-29T00:11:29;16.10;;;9.55;;
25467;SDS011;13384;24.794;110.498;2022-12-29T00:14:16;14.55;;;10.98;;
25467;SDS011;13384;24.794;110.498;2022-12-29T00:17:38;13.88;;;10.45;;
25467;SDS011;13384;24.794;110.498;2022-12-29T00:20:21;22.98;;;13.90;;
25467;SDS011;13384;24.794;110.498;2022-12-29T00:23:10;18.25;;;12.88;;
25467;SDS011;13384;24.794;110.498;2022-12-29T00:26:34;19.67;;;13.77;;
25467;SDS011;13384;24.794;110.498;2022-12-29T00:29:45;21.33;;;14.05;;
25467;SDS011;13384;24.794;110.498;2022-12-29T00:32:37;20.95;;;13.95;;
25467;SDS011;13384;24.794;110.498;2022-12-29T00:35:51;21.40;;;13.55;;
25467;SDS011;13384;24.794;110.498;2022-12-29T00:38:34;19.67;;;12.93;;
25467;SDS011;13384;24.794;110.498;2022-12-29T00:42:43;17.73;;;11.52;;
25467;SDS011;13384;24.794;110.498;2022-12-29T00:45:51;19.52;;;11.65;;
25467;SDS011;13384;24.794;110.498;2022-12-29T00:48:35;18.80;;;12.00;;
25467;SDS011;13384;24.794;110.498;2022-12-29T00:51:37;19.63;;;12.85;;
25467;SDS011;13384;24.794;110.498;2022-12-29T00:54:23;18.73;;;12.40;;
25467;SDS011;13384;24.794;110.498;2022-12-29T00:57:25;17.30;;;10.60;;
25467;SDS011;13384;24.794;110.498;2022-12-29T00:59:53;16.13;;;11.38;;
25467;SDS011;13384;24.794;110.498;2022-12-29T01:02:25;16.83;;;11.45;;
25467;SDS011;13384;24.794;110.498;2022-12-29T01:05:05;18.30;;;11.15;;
25467;SDS011;13384;24.794;110.498;2022-12-29T01:07:49;17.48;;;11.82;;
25467;SDS011;13384;24.794;110.498;2022-12-29T01:10:20;17.95;;;11.43;;
25467;SDS011;13384;24.794;110.498;2022-12-29T01:13:04;18.08;;;11.52;;
25467;SDS011;13384;24.794;110.498;2022-12-29T01:15:35;15.57;;;10.40;;
25467;SDS011;13384;24.794;110.498;2022-12-29T01:18:19;16.75;;;11.30;;
25467;SDS011;13384;24.794;110.498;2022-12-29T01:21:00;16.35;;;11.00;;
25467;SDS011;13384;24.794;110.498;2022-12-29T01:23:51;17.67;;;11.65;;
25467;SDS011;13384;24.794;110.498;2022-12-29T01:26:22;18.70;;;12.07;;
25467;SDS011;13384;24.794;110.498;2022-12-29T01:29:06;18.52;;;12.13;;
25467;SDS011;13384;24.794;110.498;2022-12-29T01:31:50;17.23;;;11.55;;
25467;SDS011;13384;24.794;110.498;2022-12-29T01:34:33;18.98;;;12.85;;
25467;SDS011;13384;24.794;110.498;2022-12-29T01:37:18;21.15;;;13.75;;
25467;SDS011;13384;24.794;110.498;2022-12-29T01:40:02;22.45;;;15.32;;
25467;SDS011;13384;24.794;110.498;2022-12-29T01:42:49;25.60;;;16.15;;
25467;SDS011;13384;24.794;110.498;2022-12-29T01:45:32;26.50;;;16.52;;
25467;SDS011;13384;24.794;110.498;2022-12-29T01:49:32;25.92;;;16.52;;
25467;SDS011;13384;24.794;110.498;2022-12-29T01:52:04;29.17;;;18.45;;
25467;SDS011;13384;24.794;110.498;2022-12-29T01:54:42;27.75;;;17.65;;
25467;SDS011;13384;24.794;110.498;2022-12-29T01:57:30;31.83;;;19.45;;
25467;SDS011;13384;24.794;110.498;2022-12-29T02:00:16;32.05;;;21.00;;
25467;SDS011;13384;24.794;110.498;2022-12-29T02:02:52;33.60;;;21.35;;
25467;SDS011;13384;24.794;110.498;2022-12-29T02:08:16;34.83;;;21.05;;
25467;SDS011;13384;24.794;110.498;2022-12-29T02:10:55;34.97;;;21.40;;
25467;SDS011;13384;24.794;110.498;2022-12-29T02:13:26;35.88;;;21.45;;
25467;SDS011;13384;24.794;110.498;2022-12-29T02:19:23;32.65;;;20.35;;
25467;SDS011;13384;24.794;110.498;2022-12-29T02:26:11;31.48;;;18.67;;
25467;SDS011;13384;24.794;110.498;2022-12-29T02:32:16;30.35;;;19.38;;
25467;SDS011;13384;24.794;110.498;2022-12-29T02:35:33;29.85;;;19.08;;
25467;SDS011;13384;24.794;110.498;2022-12-29T02:38:41;30.77;;;18.20;;
25467;SDS011;13384;24.794;110.498;2022-12-29T02:41:32;27.00;;;17.48;;
25467;SDS011;13384;24.794;110.498;2022-12-29T02:50:08;28.23;;;17.52;;
25467;SDS011;13384;24.794;110.498;2022-12-29T02:52:50;30.58;;;18.30;;
25467;SDS011;13384;24.794;110.498;2022-12-29T02:55:29;28.27;;;17.55;;
25467;SDS011;13384;24.794;110.498;2022-12-29T02:58:16;27.35;;;17.98;;
25467;SDS011;13384;24.794;110.498;2022-12-29T03:07:30;27.73;;;17.15;;
25467;SDS011;13384;24.794;110.498;2022-12-29T03:16:29;28.45;;;17.48;;
25467;SDS011;13384;24.794;110.498;2022-12-29T03:19:37;28.48;;;17.23;;
25467;SDS011;13384;24.794;110.498;2022-12-29T03:22:17;26.13;;;16.27;;
25467;SDS011;13384;24.794;110.498;2022-12-29T03:28:03;28.73;;;17.20;;
25467;SDS011;13384;24.794;110.498;2022-12-29T03:30:59;27.75;;;18.10;;
25467;SDS011;13384;24.794;110.498;2022-12-29T03:33:46;29.42;;;18.33;;
25467;SDS011;13384;24.794;110.498;2022-12-29T03:36:34;26.65;;;17.33;;
25467;SDS011;13384;24.794;110.498;2022-12-29T03:39:39;30.65;;;19.15;;
25467;SDS011;13384;24.794;110.498;2022-12-29T03:45:09;29.92;;;18.40;;
25467;SDS011;13384;24.794;110.498;2022-12-29T03:47:53;27.55;;;18.50;;
25467;SDS011;13384;24.794;110.498;2022-12-29T03:50:40;32.55;;;18.92;;
25467;SDS011;13384;24.794;110.498;2022-12-29T03:54:29;29.40;;;17.80;;
25467;SDS011;13384;24.794;110.498;2022-12-29T03:56:58;28.88;;;18.45;;
25467;SDS011;13384;24.794;110.498;2022-12-29T03:59:38;30.23;;;18.00;;
25467;SDS011;13384;24.794;110.498;2022-12-29T04:02:06;28.00;;;17.58;;
25467;SDS011;13384;24.794;110.498;2022-12-29T04:04:35;26.52;;;17.40;;
25467;SDS011;13384;24.794;110.498;2022-12-29T04:07:07;26.52;;;17.52;;
25467;SDS011;13384;24.794;110.498;2022-12-29T04:09:42;29.35;;;17.48;;
25467;SDS011;13384;24.794;110.498;2022-12-29T04:12:27;29.88;;;17.67;;
25467;SDS011;13384;24.794;110.498;2022-12-29T04:15:11;27.42;;;16.48;;
25467;SDS011;13384;24.794;110.498;2022-12-29T04:17:55;25.08;;;16.00;;
25467;SDS011;13384;24.794;110.498;2022-12-29T04:20:58;26.75;;;17.13;;
25467;SDS011;13384;24.794;110.498;2022-12-29T04:23:43;28.55;;;17.42;;
25467;SDS011;13384;24.794;110.498;2022-12-29T04:26:27;26.77;;;16.30;;
25467;SDS011;13384;24.794;110.498;2022-12-29T04:29:43;26.83;;;16.38;;
25467;SDS011;13384;24.794;110.498;2022-12-29T04:32:35;26.25;;;16.38;;
25467;SDS011;13384;24.794;110.498;2022-12-29T04:35:09;25.05;;;17.17;;
25467;SDS011;13384;24.794;110.498;2022-12-29T04:37:52;30.83;;;17.35;;
25467;SDS011;13384;24.794;110.498;2022-12-29T04:40:40;27.50;;;17.55;;
25467;SDS011;13384;24.794;110.498;2022-12-29T04:43:27;26.88;;;16.30;;
25467;SDS011;13384;24.794;110.498;2022-12-29T04:46:43;26.20;;;16.67;;
25467;SDS011;13384;24.794;110.498;2022-12-29T04:49:33;29.45;;;17.13;;
25467;SDS011;13384;24.794;110.498;2022-12-29T04:52:15;29.45;;;17.10;;
25467;SDS011;13384;24.794;110.498;2022-12-29T04:55:03;29.77;;;17.50;;
25467;SDS011;13384;24.794;110.498;2022-12-29T04:57:36;29.33;;;16.40;;
25467;SDS011;13384;24.794;110.498;2022-12-29T05:00:09;29.88;;;16.70;;
25467;SDS011;13384;24.794;110.498;2022-12-29T05:02:56;29.25;;;16.38;;
25467;SDS011;13384;24.794;110.498;2022-12-29T05:05:43;29.30;;;16.70;;
25467;SDS011;13384;24.794;110.498;2022-12-29T05:08:30;26.15;;;16.17;;
25467;SDS011;13384;24.794;110.498;2022-12-29T05:11:17;30.98;;;16.98;;
25467;SDS011;13384;24.794;110.498;2022-12-29T05:13:50;27.43;;;16.93;;
25467;SDS011;13384;24.794;110.498;2022-12-29T05:16:21;26.13;;;16.50;;
25467;SDS011;13384;24.794;110.498;2022-12-29T05:19:08;29.35;;;17.42;;
25467;SDS011;13384;24.794;110.498;2022-12-29T05:21:53;26.13;;;16.17;;
25467;SDS011;13384;24.794;110.498;2022-12-29T05:24:38;28.75;;;16.88;;
25467;SDS011;13384;24.794;110.498;2022-12-29T05:27:23;29.92;;;16.85;;
25467;SDS011;13384;24.794;110.498;2022-12-29T05:30:15;28.92;;;16.38;;
25467;SDS011;13384;24.794;110.498;2022-12-29T05:32:44;30.77;;;18.60;;
25467;SDS011;13384;24.794;110.498;2022-12-29T05:35:12;26.73;;;16.58;;
25467;SDS011;13384;24.794;110.498;2022-12-29T05:37:41;31.48;;;18.60;;
25467;SDS011;13384;24.794;110.498;2022-12-29T05:40:10;28.13;;;17.15;;
25467;SDS011;13384;24.794;110.498;2022-12-29T05:42:58;29.10;;;18.05;;
25467;SDS011;13384;24.794;110.498;2022-12-29T05:46:13;30.00;;;17.42;;
25467;SDS011;13384;24.794;110.498;2022-12-29T05:49:11;28.25;;;16.83;;
25467;SDS011;13384;24.794;110.498;2022-12-29T05:52:04;29.02;;;17.60;;
25467;SDS011;13384;24.794;110.498;2022-12-29T05:54:35;27.67;;;17.05;;
25467;SDS011;13384;24.794;110.498;2022-12-29T05:57:12;26.23;;;17.10;;
25467;SDS011;13384;24.794;110.498;2022-12-29T06:00:10;29.45;;;16.95;;
25467;SDS011;13384;24.794;110.498;2022-12-29T06:02:43;26.98;;;16.02;;
25467;SDS011;13384;24.794;110.498;2022-12-29T06:05:39;29.20;;;16.77;;
25467;SDS011;13384;24.794;110.498;2022-12-29T06:08:11;30.38;;;17.10;;
25467;SDS011;13384;24.794;110.498;2022-12-29T06:10:42;26.52;;;16.60;;
25467;SDS011;13384;24.794;110.498;2022-12-29T06:13:15;28.98;;;17.08;;
25467;SDS011;13384;24.794;110.498;2022-12-29T06:15:49;31.63;;;17.17;;
25467;SDS011;13384;24.794;110.498;2022-12-29T06:18:34;25.38;;;15.32;;
25467;SDS011;13384;24.794;110.498;2022-12-29T06:21:09;29.42;;;17.15;;
25467;SDS011;13384;24.794;110.498;2022-12-29T06:24:01;25.30;;;15.35;;
25467;SDS011;13384;24.794;110.498;2022-12-29T06:26:52;26.70;;;15.82;;
25467;SDS011;13384;24.794;110.498;2022-12-29T06:29:37;24.42;;;15.88;;
25467;SDS011;13384;24.794;110.498;2022-12-29T06:32:23;25.55;;;15.43;;
25467;SDS011;13384;24.794;110.498;2022-12-29T06:35:10;23.63;;;15.10;;
25467;SDS011;13384;24.794;110.498;2022-12-29T06:38:08;23.98;;;15.45;;
25467;SDS011;13384;24.794;110.498;2022-12-29T06:40:55;24.52;;;14.98;;
25467;SDS011;13384;24.794;110.498;2022-12-29T06:43:45;24.48;;;15.80;;
25467;SDS011;13384;24.794;110.498;2022-12-29T06:46:44;25.10;;;15.25;;
25467;SDS011;13384;24.794;110.498;2022-12-29T06:49:27;25.35;;;16.20;;
25467;SDS011;13384;24.794;110.498;2022-12-29T06:52:19;26.40;;;16.02;;
25467;SDS011;13384;24.794;110.498;2022-12-29T06:54:54;25.30;;;15.80;;
25467;SDS011;13384;24.794;110.498;2022-12-29T06:57:26;24.63;;;15.50;;
25467;SDS011;13384;24.794;110.498;2022-12-29T07:00:17;25.88;;;15.80;;
25467;SDS011;13384;24.794;110.498;2022-12-29T07:02:54;22.92;;;14.77;;
25467;SDS011;13384;24.794;110.498;2022-12-29T07:05:30;29.77;;;16.63;;
25467;SDS011;13384;24.794;110.498;2022-12-29T07:08:26;25.55;;;16.17;;
25467;SDS011;13384;24.794;110.498;2022-12-29T07:10:57;27.52;;;16.80;;
25467;SDS011;13384;24.794;110.498;2022-12-29T07:13:41;22.90;;;14.57;;
25467;SDS011;13384;24.794;110.498;2022-12-29T07:16:16;26.30;;;16.08;;
25467;SDS011;13384;24.794;110.498;2022-12-29T07:19:03;24.27;;;15.27;;
25467;SDS011;13384;24.794;110.498;2022-12-29T07:21:36;25.27;;;15.50;;
25467;SDS011;13384;24.794;110.498;2022-12-29T07:24:26;27.70;;;16.45;;
25467;SDS011;13384;24.794;110.498;2022-12-29T07:26:57;28.67;;;16.38;;
25467;SDS011;13384;24.794;110.498;2022-12-29T07:29:40;24.05;;;15.80;;
25467;SDS011;13384;24.794;110.498;2022-12-29T07:32:11;21.17;;;14.25;;
25467;SDS011;13384;24.794;110.498;2022-12-29T07:34:55;26.35;;;15.82;;
25467;SDS011;13384;24.794;110.498;2022-12-29T07:37:27;25.27;;;16.17;;
25467;SDS011;13384;24.794;110.498;2022-12-29T07:40:11;27.38;;;16.08;;
25467;SDS011;13384;24.794;110.498;2022-12-29T07:42:58;27.08;;;15.77;;
25467;SDS011;13384;24.794;110.498;2022-12-29T07:46:06;22.92;;;14.88;;
25467;SDS011;13384;24.794;110.498;2022-12-29T07:48:55;25.50;;;15.35;;
25467;SDS011;13384;24.794;110.498;2022-12-29T07:54:22;22.85;;;14.60;;
25467;SDS011;13384;24.794;110.498;2022-12-29T07:59:50;24.38;;;14.80;;
25467;SDS011;13384;24.794;110.498;2022-12-29T08:02:39;26.92;;;14.88;;
25467;SDS011;13384;24.794;110.498;2022-12-29T08:05:24;22.85;;;14.48;;
25467;SDS011;13384;24.794;110.498;2022-12-29T08:08:07;22.58;;;14.10;;
25467;SDS011;13384;24.794;110.498;2022-12-29T08:10:54;25.63;;;15.20;;
25467;SDS011;13384;24.794;110.498;2022-12-29T08:13:40;26.80;;;15.85;;
25467;SDS011;13384;24.794;110.498;2022-12-29T08:16:12;24.75;;;15.38;;
25467;SDS011;13384;24.794;110.498;2022-12-29T08:19:11;24.40;;;14.80;;
25467;SDS011;13384;24.794;110.498;2022-12-29T08:21:55;24.20;;;14.60;;
25467;SDS011;13384;24.794;110.498;2022-12-29T08:24:39;26.50;;;14.70;;
25467;SDS011;13384;24.794;110.498;2022-12-29T08:27:08;25.25;;;15.30;;
25467;SDS011;13384;24.794;110.498;2022-12-29T08:29:37;25.67;;;14.90;;
25467;SDS011;13384;24.794;110.498;2022-12-29T08:32:30;23.85;;;15.15;;
25467;SDS011;13384;24.794;110.498;2022-12-29T08:34:59;27.75;;;15.85;;
25467;SDS011;13384;24.794;110.498;2022-12-29T08:37:32;25.35;;;15.38;;
25467;SDS011;13384;24.794;110.498;2022-12-29T08:40:01;23.55;;;14.45;;
25467;SDS011;13384;24.794;110.498;2022-12-29T08:42:31;24.30;;;14.18;;
25467;SDS011;13384;24.794;110.498;2022-12-29T08:45:00;26.08;;;15.07;;
25467;SDS011;13384;24.794;110.498;2022-12-29T08:47:29;23.65;;;14.65;;
25467;SDS011;13384;24.794;110.498;2022-12-29T08:49:58;25.40;;;15.32;;
25467;SDS011;13384;24.794;110.498;2022-12-29T08:52:29;24.52;;;14.90;;
25467;SDS011;13384;24.794;110.498;2022-12-29T08:55:00;27.02;;;15.07;;
25467;SDS011;13384;24.794;110.498;2022-12-29T08:57:32;25.50;;;15.32;;
25467;SDS011;13384;24.794;110.498;2022-12-29T09:00:20;23.65;;;14.73;;
25467;SDS011;13384;24.794;110.498;2022-12-29T09:03:04;25.25;;;15.38;;
25467;SDS011;13384;24.794;110.498;2022-12-29T09:05:54;25.90;;;15.10;;
25467;SDS011;13384;24.794;110.498;2022-12-29T09:08:36;26.15;;;15.68;;
25467;SDS011;13384;24.794;110.498;2022-12-29T09:11:07;29.65;;;15.43;;
25467;SDS011;13384;24.794;110.498;2022-12-29T09:14:21;27.00;;;15.25;;
25467;SDS011;13384;24.794;110.498;2022-12-29T09:17:22;26.80;;;16.17;;
25467;SDS011;13384;24.794;110.498;2022-12-29T09:20:24;31.95;;;17.98;;
25467;SDS011;13384;24.794;110.498;2022-12-29T09:22:55;27.17;;;16.73;;
25467;SDS011;13384;24.794;110.498;2022-12-29T09:25:26;29.90;;;18.13;;
25467;SDS011;13384;24.794;110.498;2022-12-29T09:28:02;30.00;;;18.42;;
25467;SDS011;13384;24.794;110.498;2022-12-29T09:30:50;32.88;;;19.15;;
25467;SDS011;13384;24.794;110.498;2022-12-29T09:33:22;32.53;;;19.73;;
25467;SDS011;13384;24.794;110.498;2022-12-29T09:36:08;29.77;;;18.92;;
25467;SDS011;13384;24.794;110.498;2022-12-29T09:38:40;34.00;;;20.63;;
25467;SDS011;13384;24.794;110.498;2022-12-29T09:41:41;31.02;;;19.85;;
25467;SDS011;13384;24.794;110.498;2022-12-29T09:47:44;30.33;;;19.25;;
25467;SDS011;13384;24.794;110.498;2022-12-29T09:53:05;35.75;;;20.73;;
25467;SDS011;13384;24.794;110.498;2022-12-29T09:55:52;32.95;;;21.30;;
25467;SDS011;13384;24.794;110.498;2022-12-29T10:01:21;40.55;;;23.27;;
25467;SDS011;13384;24.794;110.498;2022-12-29T10:04:00;40.67;;;23.70;;
25467;SDS011;13384;24.794;110.498;2022-12-29T10:06:54;38.67;;;22.90;;
25467;SDS011;13384;24.794;110.498;2022-12-29T10:10:00;37.40;;;23.85;;
25467;SDS011;13384;24.794;110.498;2022-12-29T10:13:05;39.83;;;23.27;;
25467;SDS011;13384;24.794;110.498;2022-12-29T10:16:09;45.80;;;24.10;;
25467;SDS011;13384;24.794;110.498;2022-12-29T10:25:19;45.30;;;25.67;;
25467;SDS011;13384;24.794;110.498;2022-12-29T10:28:03;42.50;;;26.35;;
25467;SDS011;13384;24.794;110.498;2022-12-29T10:30:50;44.72;;;26.48;;
25467;SDS011;13384;24.794;110.498;2022-12-29T10:33:36;46.10;;;26.88;;
25467;SDS011;13384;24.794;110.498;2022-12-29T10:36:45;44.90;;;27.33;;
25467;SDS011;13384;24.794;110.498;2022-12-29T10:39:53;49.60;;;27.70;;
25467;SDS011;13384;24.794;110.498;2022-12-29T10:43:00;46.92;;;28.35;;
25467;SDS011;13384;24.794;110.498;2022-12-29T10:45:59;49.63;;;28.70;;
25467;SDS011;13384;24.794;110.498;2022-12-29T10:48:54;52.42;;;27.98;;
25467;SDS011;13384;24.794;110.498;2022-12-29T10:51:37;45.13;;;26.63;;
25467;SDS011;13384;24.794;110.498;2022-12-29T10:57:10;48.15;;;28.55;;
25467;SDS011;13384;24.794;110.498;2022-12-29T11:00:08;45.92;;;28.17;;
25467;SDS011;13384;24.794;110.498;2022-12-29T11:09:10;45.67;;;27.13;;
25467;SDS011;13384;24.794;110.498;2022-12-29T11:12:29;45.45;;;27.17;;
25467;SDS011;13384;24.794;110.498;2022-12-29T11:15:14;48.00;;;27.92;;
25467;SDS011;13384;24.794;110.498;2022-12-29T11:17:58;44.40;;;27.00;;
25467;SDS011;13384;24.794;110.498;2022-12-29T11:20:38;50.30;;;26.83;;
25467;SDS011;13384;24.794;110.498;2022-12-29T11:29:16;48.22;;;26.77;;
25467;SDS011;13384;24.794;110.498;2022-12-29T11:32:42;44.67;;;26.80;;
25467;SDS011;13384;24.794;110.498;2022-12-29T11:35:04;48.83;;;26.65;;
25467;SDS011;13384;24.794;110.498;2022-12-29T11:37:38;47.67;;;26.05;;
25467;SDS011;13384;24.794;110.498;2022-12-29T11:40:28;44.53;;;25.17;;
25467;SDS011;13384;24.794;110.498;2022-12-29T11:43:32;42.13;;;25.25;;
25467;SDS011;13384;24.794;110.498;2022-12-29T11:49:23;45.83;;;25.00;;
25467;SDS011;13384;24.794;110.498;2022-12-29T11:51:56;41.65;;;25.20;;
25467;SDS011;13384;24.794;110.498;2022-12-29T11:54:46;42.35;;;24.73;;
25467;SDS011;13384;24.794;110.498;2022-12-29T11:57:19;42.23;;;24.63;;
25467;SDS011;13384;24.794;110.498;2022-12-29T11:59:55;39.88;;;23.08;;
25467;SDS011;13384;24.794;110.498;2022-12-29T12:03:00;44.53;;;24.92;;
25467;SDS011;13384;24.794;110.498;2022-12-29T12:09:00;45.35;;;24.70;;
25467;SDS011;13384;24.794;110.498;2022-12-29T12:11:54;42.17;;;24.20;;
25467;SDS011;13384;24.794;110.498;2022-12-29T12:14:56;44.85;;;24.48;;
25467;SDS011;13384;24.794;110.498;2022-12-29T12:17:49;41.38;;;23.40;;
25467;SDS011;13384;24.794;110.498;2022-12-29T12:20:58;41.53;;;23.15;;
25467;SDS011;13384;24.794;110.498;2022-12-29T12:24:02;40.50;;;23.42;;
25467;SDS011;13384;24.794;110.498;2022-12-29T12:27:01;40.88;;;23.85;;
25467;SDS011;13384;24.794;110.498;2022-12-29T12:29:52;40.13;;;23.05;;
25467;SDS011;13384;24.794;110.498;2022-12-29T12:48:06;43.45;;;23.73;;
25467;SDS011;13384;24.794;110.498;2022-12-29T13:16:25;37.75;;;22.27;;
25467;SDS011;13384;24.794;110.498;2022-12-29T13:22:37;42.45;;;23.65;;
25467;SDS011;13384;24.794;110.498;2022-12-29T13:28:35;40.58;;;21.92;;
25467;SDS011;13384;24.794;110.498;2022-12-29T13:32:17;41.90;;;23.38;;
25467;SDS011;13384;24.794;110.498;2022-12-29T13:34:36;44.03;;;22.88;;
25467;SDS011;13384;24.794;110.498;2022-12-29T13:37:48;38.63;;;21.98;;
25467;SDS011;13384;24.794;110.498;2022-12-29T13:40:24;42.47;;;23.40;;
25467;SDS011;13384;24.794;110.498;2022-12-29T13:42:59;37.67;;;21.48;;
25467;SDS011;13384;24.794;110.498;2022-12-29T13:45:33;37.78;;;21.50;;
25467;SDS011;13384;24.794;110.498;2022-12-29T13:50:58;42.22;;;22.25;;
25467;SDS011;13384;24.794;110.498;2022-12-29T13:57:03;40.67;;;22.92;;
25467;SDS011;13384;24.794;110.498;2022-12-29T14:00:12;41.42;;;23.20;;
25467;SDS011;13384;24.794;110.498;2022-12-29T14:09:05;39.40;;;22.30;;
25467;SDS011;13384;24.794;110.498;2022-12-29T14:12:10;38.90;;;22.13;;
25467;SDS011;13384;24.794;110.498;2022-12-29T14:15:03;38.50;;;22.77;;
25467;SDS011;13384;24.794;110.498;2022-12-29T14:18:53;38.47;;;23.05;;
25467;SDS011;13384;24.794;110.498;2022-12-29T14:21:30;39.55;;;21.40;;
25467;SDS011;13384;24.794;110.498;2022-12-29T14:26:58;40.33;;;22.15;;
25467;SDS011;13384;24.794;110.498;2022-12-29T14:31:59;42.75;;;22.58;;
25467;SDS011;13384;24.794;110.498;2022-12-29T14:34:38;39.65;;;22.25;;
25467;SDS011;13384;24.794;110.498;2022-12-29T14:37:27;38.38;;;21.50;;
25467;SDS011;13384;24.794;110.498;2022-12-29T14:40:22;37.03;;;22.27;;
25467;SDS011;13384;24.794;110.498;2022-12-29T14:43:18;38.88;;;22.25;;
25467;SDS011;13384;24.794;110.498;2022-12-29T14:46:08;41.95;;;21.90;;
25467;SDS011;13384;24.794;110.498;2022-12-29T14:49:02;40.47;;;22.67;;
25467;SDS011;13384;24.794;110.498;2022-12-29T14:51:34;40.00;;;22.35;;
25467;SDS011;13384;24.794;110.498;2022-12-29T14:57:19;38.15;;;21.77;;
25467;SDS011;13384;24.794;110.498;2022-12-29T14:59:52;38.88;;;21.83;;
25467;SDS011;13384;24.794;110.498;2022-12-29T15:02:33;43.25;;;23.80;;
25467;SDS011;13384;24.794;110.498;2022-12-29T15:05:32;40.53;;;22.20;;
25467;SDS011;13384;24.794;110.498;2022-12-29T15:08:19;37.95;;;21.90;;
25467;SDS011;13384;24.794;110.498;2022-12-29T15:13:39;37.05;;;21.00;;
25467;SDS011;13384;24.794;110.498;2022-12-29T15:16:26;40.95;;;22.20;;
25467;SDS011;13384;24.794;110.498;2022-12-29T15:19:24;40.05;;;22.02;;
25467;SDS011;13384;24.794;110.498;2022-12-29T15:22:13;39.50;;;22.33;;
25467;SDS011;13384;24.794;110.498;2022-12-29T15:25:01;41.83;;;22.02;;
25467;SDS011;13384;24.794;110.498;2022-12-29T15:27:50;36.88;;;20.75;;
25467;SDS011;13384;24.794;110.498;2022-12-29T15:30:34;41.17;;;21.70;;
25467;SDS011;13384;24.794;110.498;2022-12-29T15:33:28;40.20;;;22.63;;
25467;SDS011;13384;24.794;110.498;2022-12-29T15:36:22;35.10;;;20.33;;
25467;SDS011;13384;24.794;110.498;2022-12-29T15:39:20;43.10;;;22.33;;
25467;SDS011;13384;24.794;110.498;2022-12-29T15:45:13;39.72;;;21.75;;
25467;SDS011;13384;24.794;110.498;2022-12-29T15:48:08;40.90;;;22.15;;
25467;SDS011;13384;24.794;110.498;2022-12-29T15:51:00;42.13;;;22.23;;
25467;SDS011;13384;24.794;110.498;2022-12-29T15:54:06;39.72;;;21.60;;
25467;SDS011;13384;24.794;110.498;2022-12-29T15:57:02;39.13;;;21.13;;
25467;SDS011;13384;24.794;110.498;2022-12-29T15:59:47;40.88;;;22.13;;
25467;SDS011;13384;24.794;110.498;2022-12-29T16:02:46;39.15;;;21.83;;
25467;SDS011;13384;24.794;110.498;2022-12-29T16:05:19;39.13;;;21.13;;
25467;SDS011;13384;24.794;110.498;2022-12-29T16:08:28;38.63;;;20.90;;
25467;SDS011;13384;24.794;110.498;2022-12-29T16:11:22;42.40;;;21.65;;
25467;SDS011;13384;24.794;110.498;2022-12-29T16:14:14;40.75;;;21.83;;
25467;SDS011;13384;24.794;110.498;2022-12-29T16:17:05;43.13;;;21.27;;
25467;SDS011;13384;24.794;110.498;2022-12-29T16:19:36;37.63;;;22.05;;
25467;SDS011;13384;24.794;110.498;2022-12-29T16:22:12;39.65;;;21.85;;
25467;SDS011;13384;24.794;110.498;2022-12-29T16:25:18;44.47;;;22.92;;
25467;SDS011;13384;24.794;110.498;2022-12-29T16:27:55;42.42;;;22.48;;
25467;SDS011;13384;24.794;110.498;2022-12-29T16:30:41;39.75;;;21.45;;
25467;SDS011;13384;24.794;110.498;2022-12-29T16:39:24;36.88;;;20.88;;
25467;SDS011;13384;24.794;110.498;2022-12-29T16:42:33;43.85;;;22.10;;
25467;SDS011;13384;24.794;110.498;2022-12-29T16:50:52;41.20;;;21.35;;
25467;SDS011;13384;24.794;110.498;2022-12-29T16:53:49;42.78;;;22.00;;
25467;SDS011;13384;24.794;110.498;2022-12-29T16:56:36;37.60;;;20.42;;
25467;SDS011;13384;24.794;110.498;2022-12-29T16:59:26;42.53;;;21.85;;
25467;SDS011;13384;24.794;110.498;2022-12-29T17:02:15;40.55;;;21.42;;
25467;SDS011;13384;24.794;110.498;2022-12-29T17:05:01;40.03;;;22.08;;
25467;SDS011;13384;24.794;110.498;2022-12-29T17:07:32;41.55;;;22.05;;
25467;SDS011;13384;24.794;110.498;2022-12-29T17:10:16;38.28;;;21.25;;
25467;SDS011;13384;24.794;110.498;2022-12-29T17:13:08;41.92;;;22.13;;
25467;SDS011;13384;24.794;110.498;2022-12-29T17:15:58;40.30;;;19.83;;
25467;SDS011;13384;24.794;110.498;2022-12-29T17:19:56;36.53;;;18.63;;
25467;SDS011;13384;24.794;110.498;2022-12-29T17:22:46;43.42;;;20.75;;
25467;SDS011;13384;24.794;110.498;2022-12-29T17:25:16;37.47;;;20.42;;
25467;SDS011;13384;24.794;110.498;2022-12-29T17:27:48;40.17;;;21.67;;
25467;SDS011;13384;24.794;110.498;2022-12-29T17:30:49;37.70;;;21.05;;
25467;SDS011;13384;24.794;110.498;2022-12-29T17:33:23;39.65;;;20.10;;
25467;SDS011;13384;24.794;110.498;2022-12-29T17:35:56;39.17;;;19.15;;
25467;SDS011;13384;24.794;110.498;2022-12-29T17:38:44;36.42;;;18.35;;
25467;SDS011;13384;24.794;110.498;2022-12-29T17:41:15;38.78;;;20.35;;
25467;SDS011;13384;24.794;110.498;2022-12-29T17:43:43;38.63;;;20.38;;
25467;SDS011;13384;24.794;110.498;2022-12-29T17:46:12;40.83;;;20.17;;
25467;SDS011;13384;24.794;110.498;2022-12-29T17:48:40;43.97;;;22.25;;
25467;SDS011;13384;24.794;110.498;2022-12-29T17:51:24;41.03;;;21.25;;
25467;SDS011;13384;24.794;110.498;2022-12-29T17:53:56;37.90;;;19.83;;
25467;SDS011;13384;24.794;110.498;2022-12-29T17:56:45;37.75;;;19.90;;
25467;SDS011;13384;24.794;110.498;2022-12-29T17:59:33;36.30;;;19.75;;
25467;SDS011;13384;24.794;110.498;2022-12-29T18:02:09;34.67;;;19.98;;
25467;SDS011;13384;24.794;110.498;2022-12-29T18:06:15;38.00;;;19.88;;
25467;SDS011;13384;24.794;110.498;2022-12-29T18:08:44;42.15;;;21.42;;
25467;SDS011;13384;24.794;110.498;2022-12-29T18:13:51;37.97;;;20.60;;
25467;SDS011;13384;24.794;110.498;2022-12-29T18:16:23;41.40;;;20.85;;
25467;SDS011;13384;24.794;110.498;2022-12-29T18:18:54;40.90;;;20.52;;
25467;SDS011;13384;24.794;110.498;2022-12-29T18:21:26;37.17;;;19.40;;
25467;SDS011;13384;24.794;110.498;2022-12-29T18:23:58;36.63;;;19.30;;
25467;SDS011;13384;24.794;110.498;2022-12-29T18:27:11;36.83;;;19.65;;
25467;SDS011;13384;24.794;110.498;2022-12-29T18:30:02;39.25;;;19.88;;
25467;SDS011;13384;24.794;110.498;2022-12-29T18:32:46;37.75;;;19.38;;
25467;SDS011;13384;24.794;110.498;2022-12-29T18:38:32;36.97;;;18.63;;